Accueil
METAR-TAF:

METAR-TAF

Aéroports :

Ingolstadt, Allemagne

latitude: 48-43N, longitude: 011-32E, altitude: 367 m

Observation

Le bulletin a été fait il y a 56 minutes, à 09:20 UTC
Vent 11 kt de est
Température -4°C
Humidité 58%
Pression 1020 hPa

METAR: ETSI 240920Z AUTO 08011KT //// // ////// M04/M11 Q1020 ///

Heure: 11:16 (10:16 UTC)

Prévision

Le bulletin a été fait il y a 23 heures et 1 minutes, à 11:15 UTC
Prévision valable du 23 à 12 UTC au 23 à 21 UTC
Vent 12 kt de est/nord-est
Visibilité: 1320 m
Quelques nuages à une hauteur de 2000 ft
Nuages fragmentés à une hauteur de 3000 ft

TAF: ETSI 231115Z 2312/2321 07012KT 9999 NSW FEW020 BKN030 CANCEL 1320

Observations et prévisions météorologiques de plus de 4000 aéroports (messages METAR et TAF).

Les stations disponibles sont représentées par des disques jaunes et rouges sur la carte.

Passer la souris dessus pour voir le nom de la station.

Cliquer dessus pour voir les observations et prévisions météorologiques.

Pour changer de carte: cliquez sur les boutons verts avec une croix noire pour zoomer, sur le bouton vert avec un tiret pour effectuer un zoom arrière, ou sur les flèches vertes pour les cartes adjacentes.


METAR-TAF: